Time;durP1;ratioP1;P1;durP2;ratioP2;P2;SDS_P1;SDS_P2;PMS_P1;PMS_P2;Temp;Humidity;BMP_temperature;BMP_pressure;BME280_temperature;BME280_humidity;BME280_pressure;Samples;Min_cycle;Max_cycle;Signal;HPM_P1;HPM_P2
2022/10/27 00:00:42;;;;;;;2.33;1.80;;;20.30;59.80;;;;;;5049002;28;46425;-69
2022/10/27 00:03:09;;;;;;;3.15;1.83;;;20.30;59.20;;;;;;5049035;28;45242;-69
2022/10/27 00:05:36;;;;;;;3.72;2.28;;;20.20;59.20;;;;;;5049068;28;45262;-69
2022/10/27 00:08:03;;;;;;;2.97;1.90;;;20.20;59.30;;;;;;5048863;28;45404;-69
2022/10/27 00:10:30;;;;;;;2.80;1.77;;;20.20;59.30;;;;;;5049060;28;46583;-69
2022/10/27 00:12:57;;;;;;;2.30;1.88;;;20.10;60.00;;;;;;5048771;28;45411;-70
2022/10/27 00:15:25;;;;;;;2.83;2.03;;;20.10;59.50;;;;;;5048952;28;45430;-69
2022/10/27 00:17:52;;;;;;;2.95;1.70;;;20.10;59.50;;;;;;5049217;28;45264;-69
2022/10/27 00:20:19;;;;;;;2.85;1.98;;;20.10;59.60;;;;;;5048676;28;45322;-69
2022/10/27 00:22:46;;;;;;;2.72;2.03;;;20.10;59.60;;;;;;5048958;28;45336;-70
2022/10/27 00:25:13;;;;;;;3.13;1.80;;;20.00;59.50;;;;;;5048791;28;45338;-69
2022/10/27 00:27:39;;;;;;;1.70;1.60;;;20.00;59.50;;;;;;5048869;28;45237;-69
2022/10/27 00:30:08;;;;;;;3.65;1.95;;;20.00;59.60;;;;;;5047957;28;46349;-69
2022/10/27 00:32:36;;;;;;;1.95;1.60;;;19.90;59.60;;;;;;5048697;28;45249;-69
2022/10/27 00:35:03;;;;;;;2.30;1.70;;;19.90;59.70;;;;;;5048946;28;45336;-69
2022/10/27 00:37:30;;;;;;;2.25;1.75;;;19.90;59.60;;;;;;5048841;28;45454;-69
2022/10/27 00:39:57;;;;;;;2.05;1.65;;;19.90;59.60;;;;;;5048468;28;47650;-69
2022/10/27 00:42:23;;;;;;;2.00;1.80;;;19.80;59.80;;;;;;5047841;28;45273;-69
2022/10/27 00:44:50;;;;;;;1.50;1.40;;;19.80;59.90;;;;;;5048579;28;45192;-70
2022/10/27 00:47:20;;;;;;;2.72;1.58;;;19.80;59.80;;;;;;5048681;28;45351;-69
2022/10/27 00:49:51;;;;;;;3.13;1.80;;;19.80;59.90;;;;;;5048343;28;46348;-69
2022/10/27 00:52:22;;;;;;;3.67;2.00;;;19.80;60.00;;;;;;5048528;28;45388;-69
2022/10/27 00:54:49;;;;;;;2.08;1.80;;;19.70;60.00;;;;;;5048395;28;45135;-69
2022/10/27 00:57:16;;;;;;;1.65;1.50;;;19.70;60.00;;;;;;5048616;28;45383;-69
2022/10/27 00:59:42;;;;;;;1.98;1.42;;;19.70;60.10;;;;;;5048157;28;47363;-69
2022/10/27 01:02:10;;;;;;;1.83;1.73;;;19.60;60.10;;;;;;5048289;28;45256;-69
2022/10/27 01:04:40;;;;;;;3.97;1.63;;;19.60;60.80;;;;;;5048079;28;45137;-69
2022/10/27 01:07:08;;;;;;;2.08;1.55;;;19.60;60.20;;;;;;5048151;28;45342;-69
2022/10/27 01:09:35;;;;;;;3.47;1.83;;;19.60;60.10;;;;;;5047853;28;47002;-69
2022/10/27 01:12:02;;;;;;;1.85;1.60;;;19.60;60.30;;;;;;5048073;28;45201;-69
2022/10/27 01:14:29;;;;;;;2.75;1.80;;;19.60;60.20;;;;;;5048083;28;45197;-68
2022/10/27 01:17:01;;;;;;;1.50;1.40;;;19.50;60.20;;;;;;5048318;28;45301;-69
2022/10/27 01:19:50;;;;;;;3.05;1.70;;;19.50;60.10;;;;;;5047787;28;45556;-71
2022/10/27 01:22:20;;;;;;;1.67;1.33;;;19.50;60.30;;;;;;5047778;28;45339;-71
2022/10/27 01:25:17;;;;;;;2.03;1.58;;;19.50;60.10;;;;;;5047959;28;45127;-69
2022/10/27 01:28:22;;;;;;;1.63;1.50;;;19.50;60.30;;;;;;5048168;28;45187;-69
2022/10/27 01:30:59;;;;;;;2.78;1.73;;;19.40;60.30;;;;;;5047625;28;45310;-70
2022/10/27 01:33:29;;;;;;;2.45;1.58;;;19.40;61.00;;;;;;5047805;28;45525;-70
2022/10/27 01:35:57;;;;;;;1.80;1.63;;;19.40;60.30;;;;;;5047925;28;45314;-70
2022/10/27 01:38:26;;;;;;;1.80;1.52;;;19.40;61.10;;;;;;5048014;28;45273;-70
2022/10/27 01:40:59;;;;;;;1.60;1.50;;;19.40;60.50;;;;;;5046418;28;46701;-72
2022/10/27 01:43:26;;;;;;;1.95;1.70;;;19.40;60.40;;;;;;5047589;28;45444;-70
2022/10/27 01:45:53;;;;;;;2.67;1.58;;;19.30;60.40;;;;;;5047742;28;45317;-70
2022/10/27 01:48:22;;;;;;;2.95;1.50;;;19.30;60.50;;;;;;5046273;28;45463;-70
2022/10/27 01:50:49;;;;;;;2.53;1.40;;;19.30;60.60;;;;;;5047255;28;46484;-70
2022/10/27 01:53:15;;;;;;;3.83;1.75;;;19.20;60.60;;;;;;5047233;28;45644;-70
2022/10/27 01:55:47;;;;;;;2.30;1.70;;;19.20;60.60;;;;;;5047593;28;45313;-70
2022/10/27 01:58:35;;;;;;;3.33;1.30;;;19.20;60.70;;;;;;5047677;28;45197;-70
2022/10/27 02:01:10;;;;;;;2.08;1.42;;;19.20;60.70;;;;;;5046990;28;45308;-70
2022/10/27 02:03:43;;;;;;;1.58;1.48;;;19.20;60.60;;;;;;5047170;28;45414;-70
2022/10/27 02:06:12;;;;;;;2.17;1.38;;;19.20;61.40;;;;;;5027508;28;45249;-70
2022/10/27 02:08:41;;;;;;;1.77;1.40;;;19.20;60.60;;;;;;5027366;28;45512;-70
2022/10/27 02:11:09;;;;;;;1.98;1.35;;;19.20;60.60;;;;;;5027172;28;45268;-70
2022/10/27 02:13:37;;;;;;;1.60;1.50;;;19.20;61.50;;;;;;5027083;28;45373;-70
2022/10/27 02:16:05;;;;;;;2.22;1.35;;;19.20;60.60;;;;;;5027461;28;45312;-70
2022/10/27 02:18:33;;;;;;;1.50;1.40;;;19.20;60.60;;;;;;5026742;28;45590;-70
2022/10/27 02:21:03;;;;;;;1.50;1.40;;;19.20;60.70;;;;;;5026730;28;46340;-69
2022/10/27 02:23:30;;;;;;;1.50;1.40;;;19.20;60.70;;;;;;5026711;28;45283;-69
2022/10/27 02:25:58;;;;;;;1.60;1.50;;;19.20;60.60;;;;;;5026804;28;45197;-69
2022/10/27 02:28:27;;;;;;;2.50;1.48;;;19.10;60.70;;;;;;5027001;28;45370;-69
2022/10/27 02:30:54;;;;;;;1.98;1.40;;;19.10;60.60;;;;;;5026649;28;46330;-69
2022/10/27 02:33:21;;;;;;;1.35;1.25;;;19.10;61.50;;;;;;5026664;28;45256;-69
2022/10/27 02:35:48;;;;;;;2.03;1.50;;;19.10;60.80;;;;;;5026809;28;45147;-69
2022/10/27 02:38:16;;;;;;;1.30;1.20;;;19.10;61.60;;;;;;5026862;28;45186;-69
2022/10/27 02:40:43;;;;;;;3.03;1.48;;;19.10;60.90;;;;;;5026368;28;46337;-69
2022/10/27 02:43:10;;;;;;;1.77;1.60;;;19.00;60.90;;;;;;5026636;28;45278;-69
2022/10/27 02:45:37;;;;;;;1.40;1.30;;;19.00;60.90;;;;;;5026750;28;45278;-69
2022/10/27 02:48:04;;;;;;;1.50;1.40;;;19.00;60.90;;;;;;5033110;28;45310;-69
2022/10/27 02:50:31;;;;;;;2.15;1.50;;;19.00;61.00;;;;;;5046482;28;46398;-69
2022/10/27 02:52:58;;;;;;;1.92;1.45;;;18.90;61.10;;;;;;5046437;28;45362;-69
2022/10/27 02:55:26;;;;;;;3.47;1.30;;;19.00;61.70;;;;;;5046770;28;45262;-69
2022/10/27 02:57:53;;;;;;;1.83;1.00;;;19.00;61.00;;;;;;5046771;28;45192;-69
2022/10/27 03:00:20;;;;;;;1.92;1.52;;;18.90;61.00;;;;;;5046397;28;47403;-69
2022/10/27 03:02:47;;;;;;;1.92;1.30;;;18.90;61.10;;;;;;5046349;28;45367;-69
2022/10/27 03:05:14;;;;;;;1.92;1.45;;;18.90;61.00;;;;;;5045780;28;45385;-69
2022/10/27 03:07:42;;;;;;;2.20;1.50;;;18.90;61.10;;;;;;5046126;28;45319;-69
2022/10/27 03:10:09;;;;;;;1.85;1.38;;;18.90;61.10;;;;;;5046091;28;46427;-69
2022/10/27 03:12:38;;;;;;;1.65;1.48;;;18.90;61.00;;;;;;5046156;28;46081;-69
2022/10/27 03:15:07;;;;;;;3.47;1.52;;;18.90;61.00;;;;;;5046376;28;45260;-69
2022/10/27 03:17:33;;;;;;;2.60;1.30;;;18.90;61.10;;;;;;5046325;28;45483;-69
2022/10/27 03:20:01;;;;;;;3.53;1.30;;;18.80;61.00;;;;;;5045794;28;46511;-69
2022/10/27 03:22:28;;;;;;;1.30;1.20;;;18.90;61.10;;;;;;5045821;28;45260;-69
2022/10/27 03:24:54;;;;;;;1.30;1.20;;;18.90;61.10;;;;;;5043029;28;45340;-69
2022/10/27 03:27:21;;;;;;;1.40;1.30;;;18.90;61.00;;;;;;5045866;28;45400;-69
2022/10/27 03:29:49;;;;;;;1.75;1.20;;;18.80;61.00;;;;;;5045432;28;45220;-69
2022/10/27 03:32:16;;;;;;;1.30;1.20;;;18.80;61.00;;;;;;5045379;28;45201;-69
2022/10/27 03:34:43;;;;;;;2.15;1.38;;;18.80;60.90;;;;;;5045662;28;45320;-69
2022/10/27 03:37:10;;;;;;;1.33;1.15;;;18.80;60.90;;;;;;5045888;28;45350;-68
2022/10/27 03:39:37;;;;;;;1.73;1.30;;;18.80;60.70;;;;;;5045700;28;45480;-68
2022/10/27 03:42:04;;;;;;;3.13;1.30;;;18.80;60.90;;;;;;5045226;28;45205;-68
2022/10/27 03:44:31;;;;;;;1.20;1.10;;;18.80;60.90;;;;;;5045644;28;45197;-69
2022/10/27 03:46:59;;;;;;;1.50;1.40;;;18.80;61.00;;;;;;5045815;28;45396;-69
2022/10/27 03:49:26;;;;;;;1.65;1.00;;;18.70;60.80;;;;;;5045214;28;45606;-68
2022/10/27 03:51:53;;;;;;;1.20;1.10;;;18.70;61.10;;;;;;5044852;28;45202;-69
2022/10/27 03:54:19;;;;;;;2.30;1.30;;;18.70;61.10;;;;;;5045521;28;45199;-69
2022/10/27 03:56:46;;;;;;;3.63;1.35;;;18.70;61.10;;;;;;5045612;28;45202;-68
2022/10/27 03:59:13;;;;;;;2.65;1.38;;;18.70;61.10;;;;;;5044907;28;45635;-68
2022/10/27 04:01:41;;;;;;;2.03;1.42;;;18.70;61.00;;;;;;5045218;28;45315;-69
2022/10/27 04:04:11;;;;;;;1.95;1.33;;;18.70;61.00;;;;;;5046599;28;45194;-68
2022/10/27 04:06:37;;;;;;;1.55;1.23;;;18.80;61.50;;;;;;5048599;28;45520;-69
2022/10/27 04:09:04;;;;;;;3.92;1.50;;;18.80;60.80;;;;;;5048726;28;46405;-68
2022/10/27 04:11:31;;;;;;;1.42;1.33;;;18.70;60.70;;;;;;5048326;28;45312;-68
2022/10/27 04:13:58;;;;;;;1.70;1.30;;;18.80;60.70;;;;;;5048759;28;45204;-69
2022/10/27 04:16:25;;;;;;;2.50;1.40;;;18.70;60.50;;;;;;5048846;28;45185;-68
2022/10/27 04:18:52;;;;;;;1.40;1.20;;;18.70;60.50;;;;;;5048143;28;46381;-68
2022/10/27 04:21:20;;;;;;;1.83;1.20;;;18.70;60.80;;;;;;5048285;28;45336;-68
2022/10/27 04:23:47;;;;;;;3.03;1.33;;;18.70;60.90;;;;;;5048604;28;45145;-69
2022/10/27 04:26:14;;;;;;;1.13;1.02;;;18.60;60.90;;;;;;5048488;28;45228;-68
2022/10/27 04:28:41;;;;;;;1.90;1.30;;;18.70;60.80;;;;;;5048303;28;45209;-69
2022/10/27 04:31:08;;;;;;;1.30;1.20;;;18.70;60.60;;;;;;5048229;28;45307;-68
2022/10/27 04:33:34;;;;;;;1.15;1.00;;;18.70;60.60;;;;;;5048175;28;45295;-69
2022/10/27 04:36:01;;;;;;;1.90;1.45;;;18.60;60.60;;;;;;5048004;28;45327;-68
2022/10/27 04:38:29;;;;;;;2.80;1.10;;;18.60;60.60;;;;;;5048042;28;45194;-69
2022/10/27 04:41:00;;;;;;;1.67;1.23;;;18.60;60.60;;;;;;5047932;28;45131;-68
2022/10/27 04:43:27;;;;;;;1.40;1.30;;;18.60;60.70;;;;;;5048163;28;45327;-68
2022/10/27 04:45:53;;;;;;;1.80;1.20;;;18.60;60.70;;;;;;5048242;28;45186;-68
2022/10/27 04:48:20;;;;;;;1.27;1.10;;;18.60;60.70;;;;;;5047799;28;46429;-68
2022/10/27 04:50:47;;;;;;;1.27;1.15;;;18.60;60.60;;;;;;5047832;28;45310;-68
2022/10/27 04:53:14;;;;;;;1.63;1.42;;;18.60;60.70;;;;;;5048061;28;45449;-68
2022/10/27 04:55:43;;;;;;;1.48;1.15;;;18.60;60.60;;;;;;5048180;28;45317;-68
2022/10/27 04:58:09;;;;;;;1.42;1.30;;;18.50;61.40;;;;;;5047847;28;45477;-69
2022/10/27 05:00:36;;;;;;;1.17;1.08;;;18.50;60.80;;;;;;5047620;28;45280;-69
2022/10/27 05:03:03;;;;;;;1.30;1.20;;;18.50;60.80;;;;;;5048162;28;45236;-69
2022/10/27 05:05:30;;;;;;;3.15;1.30;;;18.40;60.90;;;;;;5048016;28;45353;-68
2022/10/27 05:07:59;;;;;;;1.38;1.27;;;18.50;61.00;;;;;;5047362;28;45222;-68
2022/10/27 05:10:26;;;;;;;2.25;1.40;;;18.50;60.90;;;;;;5047573;28;45223;-68
2022/10/27 05:12:54;;;;;;;1.77;1.40;;;18.50;61.40;;;;;;5047919;28;45328;-68
2022/10/27 05:15:21;;;;;;;1.30;1.20;;;18.40;61.60;;;;;;5047970;28;45444;-68
2022/10/27 05:17:48;;;;;;;1.40;1.30;;;18.40;61.00;;;;;;5047313;28;46493;-68
2022/10/27 05:20:15;;;;;;;0.95;0.95;;;18.30;61.00;;;;;;5046760;28;45337;-68
2022/10/27 05:22:42;;;;;;;1.83;1.33;;;18.30;61.00;;;;;;5047672;28;45289;-69
2022/10/27 05:25:09;;;;;;;1.75;1.05;;;18.30;61.10;;;;;;5047554;28;45288;-68
2022/10/27 05:27:36;;;;;;;2.03;1.40;;;18.30;61.20;;;;;;5047132;28;45367;-68
2022/10/27 05:30:05;;;;;;;1.17;1.10;;;18.30;61.10;;;;;;5047299;28;45306;-68
2022/10/27 05:32:32;;;;;;;3.28;1.33;;;18.30;61.00;;;;;;5047462;28;45219;-68
2022/10/27 05:34:59;;;;;;;1.13;1.10;;;18.30;61.80;;;;;;5047606;28;45286;-70
2022/10/27 05:37:26;;;;;;;2.05;1.27;;;18.30;61.10;;;;;;5046997;28;45485;-68
2022/10/27 05:39:52;;;;;;;1.70;1.10;;;18.30;61.00;;;;;;5047090;28;45213;-68
2022/10/27 05:42:19;;;;;;;1.55;1.27;;;18.20;61.00;;;;;;5047209;28;45222;-68
2022/10/27 05:44:46;;;;;;;1.55;1.23;;;18.20;61.10;;;;;;5047448;28;45189;-69
2022/10/27 05:47:14;;;;;;;1.30;1.20;;;18.30;61.00;;;;;;5047098;28;47413;-68
2022/10/27 05:49:41;;;;;;;2.42;1.30;;;18.20;61.00;;;;;;5047103;28;45296;-68
2022/10/27 05:52:08;;;;;;;1.08;1.00;;;18.20;61.00;;;;;;5047451;28;45249;-68
2022/10/27 05:54:35;;;;;;;2.35;1.33;;;18.20;61.10;;;;;;5047180;28;45398;-68
2022/10/27 05:57:02;;;;;;;3.30;1.50;;;18.20;61.10;;;;;;5047005;28;46488;-68
2022/10/27 05:59:29;;;;;;;1.55;1.20;;;18.20;61.30;;;;;;5046718;28;45331;-68
2022/10/27 06:01:56;;;;;;;1.58;1.25;;;18.20;61.20;;;;;;5046951;28;45481;-68
2022/10/27 06:04:24;;;;;;;2.70;1.35;;;18.20;61.20;;;;;;5046931;28;45536;-68
2022/10/27 06:06:51;;;;;;;1.55;1.40;;;18.10;61.10;;;;;;5046184;28;45263;-68
2022/10/27 06:09:18;;;;;;;1.50;1.00;;;18.10;62.10;;;;;;5046842;28;45323;-68
2022/10/27 06:11:44;;;;;;;3.38;1.38;;;18.10;61.40;;;;;;5047151;28;45360;-70
2022/10/27 06:14:11;;;;;;;3.38;1.50;;;18.10;61.40;;;;;;5047244;28;45543;-68
2022/10/27 06:16:38;;;;;;;1.95;1.30;;;18.10;61.40;;;;;;5046679;28;45289;-68
2022/10/27 06:19:05;;;;;;;1.35;1.20;;;18.00;61.60;;;;;;5046816;28;45284;-68
2022/10/27 06:21:33;;;;;;;1.58;1.40;;;18.00;61.50;;;;;;5046756;28;45293;-68
2022/10/27 06:24:00;;;;;;;1.52;1.15;;;18.00;62.00;;;;;;5046849;28;45253;-68
2022/10/27 06:26:27;;;;;;;1.40;1.25;;;18.10;61.40;;;;;;5046119;28;45917;-68
2022/10/27 06:28:54;;;;;;;1.25;1.20;;;18.00;61.50;;;;;;5046869;28;45230;-68
2022/10/27 06:31:21;;;;;;;1.40;1.30;;;18.10;61.30;;;;;;5046553;28;45201;-68
2022/10/27 06:33:48;;;;;;;3.28;1.65;;;18.10;61.20;;;;;;5046555;28;45439;-68
2022/10/27 06:36:14;;;;;;;1.30;1.20;;;18.10;61.20;;;;;;5046341;28;46523;-68
2022/10/27 06:38:43;;;;;;;1.30;1.20;;;18.10;61.30;;;;;;5045730;28;45330;-68
2022/10/27 06:41:09;;;;;;;1.90;1.42;;;18.10;61.20;;;;;;5046220;28;45209;-70
2022/10/27 06:43:36;;;;;;;1.45;1.30;;;18.10;61.40;;;;;;5046586;28;45577;-69
2022/10/27 06:46:03;;;;;;;3.53;1.38;;;18.10;61.20;;;;;;5045485;28;45298;-68
2022/10/27 06:48:30;;;;;;;3.58;1.50;;;18.10;61.40;;;;;;5045151;28;45241;-68
2022/10/27 06:50:57;;;;;;;3.28;1.88;;;18.00;61.40;;;;;;5046109;28;45319;-68
2022/10/27 06:53:24;;;;;;;6.03;1.75;;;18.00;61.40;;;;;;5046575;28;45127;-68
2022/10/27 06:55:54;;;;;;;3.92;1.90;;;18.00;61.40;;;;;;5045202;28;45438;-68
2022/10/27 06:58:21;;;;;;;5.72;2.10;;;18.00;61.60;;;;;;5045783;28;45269;-68
2022/10/27 07:00:48;;;;;;;4.85;2.20;;;18.00;61.50;;;;;;5045842;28;45345;-68
2022/10/27 07:03:14;;;;;;;3.72;2.42;;;18.00;61.70;;;;;;5045906;28;45423;-68
2022/10/27 07:05:41;;;;;;;4.57;1.98;;;18.00;61.60;;;;;;5045631;28;46619;-68
2022/10/27 07:08:08;;;;;;;4.72;2.20;;;18.00;61.60;;;;;;5045015;28;45240;-68
2022/10/27 07:10:35;;;;;;;4.57;2.33;;;18.00;61.70;;;;;;5045862;28;45304;-68
2022/10/27 07:13:03;;;;;;;3.70;2.15;;;18.00;61.70;;;;;;5045699;28;45507;-68
2022/10/27 07:15:31;;;;;;;4.00;2.50;;;18.00;61.70;;;;;;5046071;28;45695;-68
2022/10/27 07:17:59;;;;;;;7.57;2.63;;;17.90;61.50;;;;;;5045417;28;45245;-68
2022/10/27 07:20:26;;;;;;;4.10;2.22;;;18.00;61.70;;;;;;5042947;28;45511;-69
2022/10/27 07:22:53;;;;;;;5.35;2.50;;;18.00;61.70;;;;;;5044029;28;45397;-68
2022/10/27 07:25:19;;;;;;;4.80;2.33;;;17.90;61.80;;;;;;5044855;28;45482;-68
2022/10/27 07:27:52;;;;;;;6.93;2.90;;;17.90;61.90;;;;;;5045282;28;45195;-68
2022/10/27 07:30:21;;;;;;;5.43;2.53;;;18.00;62.10;;;;;;5045194;28;45265;-69
2022/10/27 07:32:47;;;;;;;7.03;2.67;;;17.90;62.10;;;;;;5044925;28;45455;-71
2022/10/27 07:35:15;;;;;;;7.72;2.78;;;18.00;62.90;;;;;;5044470;28;45419;-68
2022/10/27 07:37:44;;;;;;;6.35;2.97;;;18.00;62.30;;;;;;5045059;28;45474;-68
2022/10/27 07:40:12;;;;;;;6.88;3.20;;;18.00;62.50;;;;;;5047891;28;45192;-68
2022/10/27 07:42:44;;;;;;;4.68;2.45;;;18.00;62.80;;;;;;5048323;28;45179;-69
2022/10/27 07:45:11;;;;;;;8.15;3.10;;;17.90;63.70;;;;;;5047641;28;46378;-69
2022/10/27 07:47:44;;;;;;;5.97;2.97;;;17.90;63.20;;;;;;5048331;28;45218;-69
2022/10/27 07:50:11;;;;;;;7.75;2.88;;;17.90;63.30;;;;;;5048287;28;45212;-69
2022/10/27 07:52:42;;;;;;;8.10;3.25;;;18.00;63.10;;;;;;5049096;28;45205;-69
2022/10/27 07:55:09;;;;;;;7.63;2.80;;;18.00;63.90;;;;;;5048332;28;45419;-69
2022/10/27 07:57:37;;;;;;;5.95;3.38;;;17.90;63.70;;;;;;5048960;28;45212;-69
2022/10/27 08:00:04;;;;;;;7.75;3.80;;;17.90;64.70;;;;;;5048487;28;45209;-70
2022/10/27 08:02:31;;;;;;;6.63;3.30;;;18.00;65.30;;;;;;5048649;28;45380;-70
2022/10/27 08:04:59;;;;;;;6.13;3.72;;;18.00;65.30;;;;;;5049169;28;45338;-70
2022/10/27 08:07:26;;;;;;;8.63;3.10;;;18.00;65.30;;;;;;5048141;28;45143;-70
2022/10/27 08:09:53;;;;;;;11.88;4.55;;;18.00;65.70;;;;;;5048062;28;45361;-68
2022/10/27 08:12:20;;;;;;;7.60;3.22;;;18.00;65.20;;;;;;5049268;28;45379;-69
2022/10/27 08:14:47;;;;;;;7.53;3.30;;;18.00;65.40;;;;;;5048499;28;45434;-69
2022/10/27 08:17:14;;;;;;;7.85;3.83;;;18.10;65.60;;;;;;5048638;28;45315;-69
2022/10/27 08:19:41;;;;;;;6.88;3.20;;;18.10;65.70;;;;;;5048478;28;45424;-70
2022/10/27 08:22:09;;;;;;;6.40;3.05;;;18.10;66.00;;;;;;5048197;28;45317;-69
2022/10/27 08:24:36;;;;;;;6.18;3.22;;;18.20;65.80;;;;;;5048059;28;45516;-69
2022/10/27 08:27:03;;;;;;;9.07;3.60;;;18.10;65.90;;;;;;5047890;28;45295;-68
2022/10/27 08:29:30;;;;;;;7.45;3.67;;;18.10;66.80;;;;;;5049163;28;45332;-69
2022/10/27 08:31:57;;;;;;;6.20;3.47;;;18.10;65.70;;;;;;5048369;28;45181;-69
2022/10/27 08:34:24;;;;;;;9.45;3.67;;;18.20;65.70;;;;;;5047864;28;45281;-69
2022/10/27 08:36:51;;;;;;;7.82;3.63;;;18.10;66.00;;;;;;5047097;28;45369;-69
2022/10/27 08:39:19;;;;;;;8.00;3.65;;;18.20;66.20;;;;;;5048220;28;45300;-69
2022/10/27 08:41:50;;;;;;;8.68;4.30;;;18.20;66.00;;;;;;5047717;28;45116;-69
2022/10/27 08:44:21;;;;;;;8.05;3.70;;;18.20;65.70;;;;;;5047503;28;46424;-69
2022/10/27 08:46:49;;;;;;;4.70;3.25;;;18.20;65.60;;;;;;5047308;28;45198;-69
2022/10/27 08:49:28;;;;;;;6.95;3.50;;;18.30;65.60;;;;;;5047000;28;45522;-69
2022/10/27 08:51:58;;;;;;;5.93;3.40;;;18.30;65.50;;;;;;5048181;28;45224;-70
2022/10/27 08:54:26;;;;;;;9.65;4.15;;;18.40;65.60;;;;;;5047283;28;46437;-69
2022/10/27 08:56:53;;;;;;;5.00;3.17;;;18.40;65.50;;;;;;5047291;28;45292;-70
2022/10/27 08:59:20;;;;;;;4.75;3.10;;;18.40;65.10;;;;;;5047751;28;45252;-70
2022/10/27 09:01:51;;;;;;;5.22;2.75;;;18.50;65.00;;;;;;5048283;28;45345;-69
2022/10/27 09:04:28;;;;;;;6.28;3.42;;;18.50;64.70;;;;;;5047561;28;46405;-70
2022/10/27 09:07:06;;;;;;;5.15;2.90;;;18.50;64.50;;;;;;5047457;28;45301;-70
2022/10/27 09:09:39;;;;;;;5.95;3.25;;;18.50;65.10;;;;;;5047916;28;45363;-69
2022/10/27 09:12:10;;;;;;;4.43;2.30;;;18.60;64.40;;;;;;5047611;28;45201;-70
2022/10/27 09:14:53;;;;;;;7.88;3.03;;;18.60;63.90;;;;;;5047292;28;46981;-70
2022/10/27 09:17:21;;;;;;;3.72;2.40;;;18.70;63.90;;;;;;5043772;28;45440;-69
2022/10/27 09:19:49;;;;;;;6.60;2.90;;;18.70;63.90;;;;;;5046858;28;45327;-69
2022/10/27 09:22:17;;;;;;;4.22;2.92;;;18.80;63.90;;;;;;5045046;28;45213;-69
2022/10/27 09:24:47;;;;;;;8.35;3.10;;;18.80;64.10;;;;;;5046656;28;46930;-70
2022/10/27 09:27:14;;;;;;;6.93;2.63;;;18.90;65.20;;;;;;5036435;28;45293;-71
2022/10/27 09:29:41;;;;;;;11.95;2.97;;;19.00;64.50;;;;;;5047667;28;45463;-70
2022/10/27 09:32:14;;;;;;;7.35;3.30;;;19.00;64.70;;;;;;5041649;28;45179;-71
2022/10/27 09:34:44;;;;;;;7.50;2.92;;;19.10;64.40;;;;;;5046264;28;46242;-71
2022/10/27 09:37:12;;;;;;;11.95;3.17;;;19.20;64.20;;;;;;5046945;28;45354;-69
2022/10/27 09:39:39;;;;;;;6.72;3.30;;;19.20;64.20;;;;;;5048074;28;45379;-69
2022/10/27 09:42:07;;;;;;;6.60;3.03;;;19.40;64.00;;;;;;5045917;28;45402;-68
2022/10/27 09:44:34;;;;;;;6.53;4.00;;;19.50;64.60;;;;;;5035855;28;45463;-69
2022/10/27 09:47:01;;;;;;;14.75;8.55;;;19.50;64.00;;;;;;5046912;28;45510;-68
2022/10/27 09:49:29;;;;;;;27.60;23.98;;;19.70;63.90;;;;;;5042059;28;45388;-68
2022/10/27 09:52:00;;;;;;;33.83;28.10;;;19.80;63.90;;;;;;5042486;28;45546;-67
2022/10/27 09:54:32;;;;;;;27.33;20.80;;;19.80;63.60;;;;;;5045620;28;45360;-69
2022/10/27 09:57:07;;;;;;;23.45;21.15;;;20.00;63.20;;;;;;5042492;28;45131;-67
2022/10/27 09:59:35;;;;;;;27.55;24.38;;;20.10;62.80;;;;;;5043324;28;45201;-69
2022/10/27 10:02:02;;;;;;;32.03;27.17;;;20.20;62.60;;;;;;5045747;28;45562;-70
2022/10/27 10:04:30;;;;;;;20.25;17.00;;;20.30;62.60;;;;;;5046378;28;46348;-69
2022/10/27 10:06:58;;;;;;;45.38;38.35;;;20.40;62.40;;;;;;5046613;28;45203;-70
2022/10/27 10:09:26;;;;;;;28.10;25.08;;;20.50;62.00;;;;;;5047182;28;45201;-69
2022/10/27 10:12:19;;;;;;;20.13;18.02;;;20.60;61.60;;;;;;5047219;28;45333;-70
2022/10/27 10:14:46;;;;;;;22.15;19.83;;;20.80;60.80;;;;;;5046757;28;46665;-71
2022/10/27 10:17:21;;;;;;;21.35;16.50;;;20.90;60.80;;;;;;5046604;28;45374;-71
2022/10/27 10:19:48;;;;;;;19.95;17.90;;;21.10;60.30;;;;;;5046656;28;45311;-70
2022/10/27 10:22:20;;;;;;;17.58;15.70;;;21.20;59.60;;;;;;5046922;28;45475;-70
2022/10/27 10:24:46;;;;;;;9.35;7.43;;;21.40;59.20;;;;;;5047063;28;47944;-72
2022/10/27 10:27:26;;;;;;;6.75;4.95;;;21.50;58.50;;;;;;5047114;28;46272;-71
2022/10/27 10:29:53;;;;;;;8.85;4.85;;;21.60;58.10;;;;;;5047194;28;45123;-71
2022/10/27 10:32:22;;;;;;;5.75;3.30;;;21.70;58.10;;;;;;5047448;28;45451;-73
2022/10/27 10:34:51;;;;;;;16.05;11.63;;;21.70;57.40;;;;;;5046544;28;47424;-69
2022/10/27 10:37:37;;;;;;;26.00;22.40;;;21.80;58.00;;;;;;5046508;28;45224;-70
2022/10/27 10:40:24;;;;;;;25.63;22.90;;;22.00;58.00;;;;;;5046763;28;45277;-69
2022/10/27 10:43:01;;;;;;;21.25;15.00;;;22.10;57.60;;;;;;5046412;28;45135;-69
2022/10/27 10:45:29;;;;;;;17.00;14.88;;;22.20;57.50;;;;;;5046532;28;47284;-72
2022/10/27 10:47:58;;;;;;;10.77;8.43;;;22.30;57.40;;;;;;5034437;28;45511;-71
2022/10/27 10:50:25;;;;;;;7.78;5.65;;;22.50;56.80;;;;;;5027594;28;45190;-72
2022/10/27 10:52:54;;;;;;;9.55;4.75;;;22.60;56.40;;;;;;5029176;28;45448;-71
2022/10/27 10:55:23;;;;;;;4.15;3.33;;;22.60;56.20;;;;;;5026999;28;45347;-70
2022/10/27 10:57:51;;;;;;;5.38;3.25;;;22.60;55.50;;;;;;5031435;28;45197;-71
2022/10/27 11:00:20;;;;;;;7.53;3.40;;;22.60;55.80;;;;;;5047078;28;45257;-70
2022/10/27 11:02:51;;;;;;;6.88;3.00;;;22.60;55.70;;;;;;5046693;28;45356;-72
2022/10/27 11:05:21;;;;;;;5.68;3.00;;;22.70;55.40;;;;;;5046331;28;46393;-69
2022/10/27 11:07:48;;;;;;;5.32;2.72;;;22.80;55.10;;;;;;5046206;28;45199;-69
2022/10/27 11:10:16;;;;;;;7.30;2.70;;;22.90;55.10;;;;;;5046640;28;45405;-70
2022/10/27 11:12:45;;;;;;;3.83;2.55;;;22.90;54.80;;;;;;5047214;28;45422;-71
2022/10/27 11:15:16;;;;;;;6.07;2.60;;;23.00;54.70;;;;;;5049916;28;46389;-71
2022/10/27 11:17:44;;;;;;;6.90;3.17;;;23.00;54.70;;;;;;5049835;28;45450;-71
2022/10/27 11:20:13;;;;;;;5.82;2.42;;;23.00;55.10;;;;;;5050050;28;45445;-71
2022/10/27 11:22:42;;;;;;;3.83;2.50;;;23.10;54.30;;;;;;5049948;28;45353;-71
2022/10/27 11:25:14;;;;;;;4.68;2.40;;;23.10;54.20;;;;;;5049543;28;45448;-71
2022/10/27 11:27:45;;;;;;;9.30;2.70;;;23.20;54.20;;;;;;5049636;28;45197;-71
2022/10/27 11:30:20;;;;;;;4.32;2.30;;;23.20;54.20;;;;;;5049700;28;45264;-71
2022/10/27 11:32:52;;;;;;;4.05;2.22;;;23.30;54.10;;;;;;5049896;28;45478;-70
2022/10/27 11:35:20;;;;;;;6.32;2.13;;;23.30;54.10;;;;;;5049380;28;46401;-70
2022/10/27 11:37:51;;;;;;;5.70;2.35;;;23.30;54.00;;;;;;5038363;28;45541;-71
2022/10/27 11:40:21;;;;;;;4.18;2.20;;;23.30;54.00;;;;;;5049616;28;45338;-72
2022/10/27 11:42:53;;;;;;;3.80;2.30;;;23.40;54.00;;;;;;5035158;28;45131;-71
2022/10/27 11:45:21;;;;;;;6.55;2.10;;;23.40;53.90;;;;;;5029371;28;46790;-71
2022/10/27 11:47:51;;;;;;;6.43;2.40;;;23.50;54.00;;;;;;5029659;28;45273;-72
2022/10/27 11:50:20;;;;;;;9.27;2.50;;;23.50;53.90;;;;;;5029362;28;45247;-71
2022/10/27 11:52:48;;;;;;;3.65;2.30;;;23.50;53.90;;;;;;5029517;28;45289;-71
2022/10/27 11:55:16;;;;;;;4.57;2.53;;;23.60;54.00;;;;;;5044100;28;45475;-71
2022/10/27 11:57:46;;;;;;;5.63;2.35;;;23.60;53.90;;;;;;5049299;28;45383;-71
2022/10/27 12:00:19;;;;;;;4.45;2.42;;;23.60;54.00;;;;;;5049607;28;45258;-72
2022/10/27 12:03:09;;;;;;;5.72;2.40;;;23.60;54.00;;;;;;5049402;28;45329;-72
2022/10/27 12:05:38;;;;;;;4.30;2.10;;;23.70;53.90;;;;;;5047144;28;46622;-72
2022/10/27 12:08:10;;;;;;;4.00;2.28;;;23.70;53.90;;;;;;5068600;28;45448;-73
2022/10/27 12:10:43;;;;;;;3.53;2.25;;;23.80;54.10;;;;;;5069288;28;45453;-74
2022/10/27 12:13:13;;;;;;;5.05;2.38;;;23.80;54.00;;;;;;5054520;28;45182;-74
2022/10/27 12:15:42;;;;;;;5.63;2.22;;;23.80;54.00;;;;;;5064809;28;45445;-74
2022/10/27 12:18:15;;;;;;;4.85;2.60;;;23.90;53.70;;;;;;5069248;28;45190;-74
2022/10/27 12:20:44;;;;;;;5.40;2.40;;;23.90;53.80;;;;;;5069312;28;45276;-74
2022/10/27 12:23:12;;;;;;;7.45;2.35;;;24.00;54.20;;;;;;5069560;28;45269;-74
2022/10/27 12:25:41;;;;;;;5.57;2.03;;;24.00;53.50;;;;;;5067361;28;45603;-74
2022/10/27 12:28:09;;;;;;;5.60;2.20;;;24.00;53.50;;;;;;5069041;28;44732;-74
2022/10/27 12:30:36;;;;;;;5.50;2.17;;;24.00;53.40;;;;;;5064948;28;45308;-74
2022/10/27 12:33:05;;;;;;;8.60;2.60;;;24.10;53.70;;;;;;5049585;28;45278;-72
2022/10/27 12:35:35;;;;;;;4.45;2.30;;;24.10;53.60;;;;;;5048548;28;46406;-73
2022/10/27 12:38:07;;;;;;;6.38;2.17;;;24.20;53.70;;;;;;5051104;28;45529;-74
2022/10/27 12:40:35;;;;;;;5.47;2.33;;;24.20;53.60;;;;;;5069239;28;45177;-73
2022/10/27 12:43:07;;;;;;;10.48;2.40;;;24.20;53.60;;;;;;5060832;28;45258;-73
2022/10/27 12:45:50;;;;;;;6.55;2.53;;;24.20;53.60;;;;;;5060768;28;46404;-74
2022/10/27 12:48:20;;;;;;;4.43;2.00;;;24.20;53.70;;;;;;5063251;28;45533;-73
2022/10/27 12:50:53;;;;;;;5.30;2.55;;;24.30;53.80;;;;;;5068003;28;45465;-73
2022/10/27 12:53:26;;;;;;;6.10;2.50;;;24.30;53.80;;;;;;5068881;28;45182;-72